Polar Lady — WDC4401 — position and weather

sailwx.info

Track history (hours):
 
Tides and Currents Weather Stations Pressure Air Temp Water Temp Dewpoint Dewpoint Depression Visibility Wind Speed Wind Dir Waves Ship Positions

Polar Lady

Owner: M.G.F Fisheries, Seattle, WA. More information available from US FCC via Universal Licensing System and Coast Guard Vessel Documentation Center.

Last reported at 2015-Jun-22 14:11 UTC. Time now 2015-Jul-02 18:15 UTC.
Position N 54°51' W 131°60'.
Warning: this ship's position is 10 days out of date.

Length 40 m.

Type: Fishing. MMSI: 367024080.

Date/timePositionNaut miles runAvg speedWind from/ knotsBaromVisibWave heightAir tempDewpointWater temp
2015-Jun-22 14:11N 54°51' W 131°60'0 0.0
2015-Jun-22 13:28N 54°51' W 131°60'0 0.0
2015-Jun-22 12:27N 54°51' W 131°60'0 0.0
2015-Jun-22 11:33N 54°51' W 131°60'0 0.0
2015-Jun-22 10:13N 54°51' W 131°60'0 0.0
2015-Jun-22 09:28N 54°51' W 131°60'0 0.0
2015-Jun-22 05:32N 54°51' W 131°60'0 0.0
2015-Jun-22 04:31N 54°51' W 131°60'0 0.0
2015-Jun-22 03:33N 54°51' W 131°60'0 0.0
2015-Jun-22 02:27N 54°51' W 131°60'0 0.0
2015-Jun-22 01:32N 54°51' W 131°60'0 0.0
2015-Jun-22 00:17N 54°51' W 131°60'0 0.0
2015-Jun-21 23:33N 54°51' W 131°60'0 0.0
2015-Jun-21 22:33N 54°51' W 131°60'  
2015-Jun-18 06:17N 51°35' W 127°53'7 8.8
2015-Jun-18 05:32N 51°29' W 127°51'17 8.6
2015-Jun-18 03:32N 51°12' W 127°51'9 8.7
2015-Jun-18 02:33N 51°05' W 127°42'9 9.4
2015-Jun-18 01:33N 50°58' W 127°32'10 9.6
2015-Jun-18 00:33N 50°53' W 127°19'9 8.9
2015-Jun-17 23:33N 50°48' W 127°07'19 7.9
2015-Jun-17 21:08N 50°36' W 126°44'5 6.3
2015-Jun-17 20:24N 50°32' W 126°40'7 8.4
2015-Jun-17 19:33N 50°30' W 126°29'97 8.6
2015-Jun-17 08:16N 49°31' W 124°28'6 8.0
2015-Jun-17 07:33N 49°27' W 124°22'10 8.8
2015-Jun-17 06:27N 49°22' W 124°09'8 8.0
2015-Jun-17 05:29N 49°19' W 123°58'7 7.9
2015-Jun-17 04:33N 49°16' W 123°48'8 7.9
2015-Jun-17 03:33N 49°12' W 123°38'9 9.0
2015-Jun-17 02:33N 49°06' W 123°27'8 8.3
2015-Jun-17 01:33N 49°01' W 123°17'9 9.3
2015-Jun-17 00:33N 48°55' W 123°06'10 9.8
2015-Jun-16 23:32N 48°49' W 122°54'1010.1
2015-Jun-16 22:33N 48°42' W 122°44'611.2
2015-Jun-16 21:59N 48°36' W 122°45'511.4
2015-Jun-16 21:33N 48°31' W 122°44'9 8.8
2015-Jun-16 20:33N 48°22' W 122°45'12 6.4
2015-Jun-16 18:39N 48°10' W 122°43'4 9.2
2015-Jun-16 18:12N 48°06' W 122°39'710.7
2015-Jun-16 17:32N 47°60' W 122°36'9 9.7
2015-Jun-16 16:38N 47°53' W 122°28'110.2
2015-Jun-16 16:33N 47°52' W 122°28'0 0.0
2015-Jun-16 16:33N 47°52' W 122°28'9 9.2
2015-Jun-16 15:33N 47°43' W 122°25'0 6.7
2015-Jun-16 15:32N 47°43' W 122°25'3 3.2
2015-Jun-16 14:33N 47°40' W 122°24'0 0.0
2015-Jun-16 14:32N 47°40' W 122°24'1 0.6
2015-Jun-16 13:33N 47°40' W 122°23'0 0.2
2015-Jun-16 13:31N 47°40' W 122°23'0 0.0
2015-Jun-16 12:33N 47°40' W 122°23'0 0.2
2015-Jun-16 12:31N 47°40' W 122°23'0 0.0
2015-Jun-16 11:33N 47°40' W 122°23'0 0.0
2015-Jun-16 11:31N 47°40' W 122°23'0 0.0
2015-Jun-16 10:33N 47°40' W 122°23'0 0.0
2015-Jun-16 10:30N 47°40' W 122°23'0 0.0
2015-Jun-16 09:33N 47°40' W 122°23'0 0.0
2015-Jun-16 09:30N 47°40' W 122°23'0 0.0
2015-Jun-16 08:33N 47°40' W 122°23'0 0.0
2015-Jun-16 08:30N 47°40' W 122°23'0 0.0
2015-Jun-16 07:33N 47°40' W 122°23'0 0.1
2015-Jun-16 07:30N 47°40' W 122°23'0 0.0
2015-Jun-16 06:33N 47°40' W 122°23'0 0.1
2015-Jun-16 06:30N 47°40' W 122°23'0 0.0
2015-Jun-16 06:00N 47°40' W 122°23'0 0.0
2015-Jun-16 05:33N 47°40' W 122°23'0 0.0
2015-Jun-16 04:33N 47°40' W 122°23'0 0.0
2015-Jun-16 04:29N 47°40' W 122°23'0 0.0
2015-Jun-16 03:34N 47°40' W 122°23'0 0.0
2015-Jun-16 03:29N 47°40' W 122°23'0 0.0
2015-Jun-16 02:33N 47°40' W 122°23'0 0.0
2015-Jun-16 02:29N 47°40' W 122°23'0 0.0
2015-Jun-16 01:33N 47°40' W 122°23'0 0.0
2015-Jun-16 01:28N 47°40' W 122°23'0 0.0
2015-Jun-16 00:33N 47°40' W 122°23'021.6
2015-Jun-16 00:33N 47°40' W 122°23'0 0.0
2015-Jun-15 23:33N 47°40' W 122°23'0 0.0
2015-Jun-15 23:33N 47°40' W 122°23'0 0.0
2015-Jun-15 22:33N 47°40' W 122°23'0 0.0
2015-Jun-15 22:33N 47°40' W 122°23'1 0.5
2015-Jun-15 21:33N 47°39' W 122°23'0 1.2
2015-Jun-15 21:33N 47°39' W 122°23'0 0.0
2015-Jun-15 20:33N 47°39' W 122°23'0 0.0
2015-Jun-15 20:32N 47°39' W 122°23'0 0.0
2015-Jun-15 19:33N 47°39' W 122°23'0 0.3
2015-Jun-15 19:32N 47°39' W 122°23'0 0.0
2015-Jun-15 18:33N 47°39' W 122°23'0 0.0
2015-Jun-15 18:32N 47°39' W 122°23'0 0.0
2015-Jun-15 17:33N 47°39' W 122°23'0 0.0
2015-Jun-15 17:32N 47°39' W 122°23'0 0.0
2015-Jun-15 16:33N 47°39' W 122°23'0 0.2
2015-Jun-15 16:32N 47°39' W 122°23'0 0.0
2015-Jun-15 15:33N 47°39' W 122°23'0 0.0
2015-Jun-15 15:32N 47°39' W 122°23'0 0.0
2015-Jun-15 14:33N 47°39' W 122°23'0 0.2
2015-Jun-15 14:31N 47°39' W 122°23'0 0.0
2015-Jun-15 13:33N 47°39' W 122°23'0 0.2
2015-Jun-15 13:31N 47°39' W 122°23'0 0.0
2015-Jun-15 12:33N 47°39' W 122°23'0 0.0
2015-Jun-15 12:31N 47°39' W 122°23'0 0.0
2015-Jun-15 11:33N 47°39' W 122°23'0 0.1
2015-Jun-15 11:31N 47°39' W 122°23'0 0.0
2015-Jun-15 10:33N 47°39' W 122°23'0 0.1
2015-Jun-15 10:30N 47°39' W 122°23'0 0.0
2015-Jun-15 09:33N 47°39' W 122°23'0 0.0
2015-Jun-15 09:30N 47°39' W 122°23'0 0.0
2015-Jun-15 08:33N 47°39' W 122°23'0 0.0
2015-Jun-15 08:30N 47°39' W 122°23'0 0.0
2015-Jun-15 07:33N 47°39' W 122°23'0 0.0
2015-Jun-15 07:30N 47°39' W 122°23'0 0.0
2015-Jun-15 06:33N 47°39' W 122°23'0 0.0
2015-Jun-15 06:30N 47°39' W 122°23'0 0.0
2015-Jun-15 06:05N 47°39' W 122°23'0 0.0
2015-Jun-15 05:33N 47°39' W 122°23'0 0.0
2015-Jun-15 04:33N 47°39' W 122°23'0 0.0
2015-Jun-15 04:29N 47°39' W 122°23'0 0.0
2015-Jun-15 03:33N 47°39' W 122°23'0 0.2
2015-Jun-15 03:29N 47°39' W 122°23'0 0.0
2015-Jun-15 02:33N 47°39' W 122°23'0 0.1
2015-Jun-15 02:29N 47°39' W 122°23'0 0.0
2015-Jun-15 01:33N 47°39' W 122°23'0 0.0
2015-Jun-15 01:28N 47°39' W 122°23'0 0.0
2015-Jun-15 00:34N 47°39' W 122°23'0 3.6
2015-Jun-15 00:33N 47°39' W 122°23'0 0.0
2015-Jun-14 23:33N 47°39' W 122°23'0 0.0
2015-Jun-14 23:33N 47°39' W 122°23'0 0.0
2015-Jun-14 22:33N 47°39' W 122°23'0 0.0
2015-Jun-14 22:33N 47°39' W 122°23'0 0.0
2015-Jun-14 21:33N 47°39' W 122°23'0 0.0
2015-Jun-14 21:33N 47°39' W 122°23'0 0.0
2015-Jun-14 20:33N 47°39' W 122°23'0 0.5
2015-Jun-14 20:33N 47°39' W 122°23'0 0.0
2015-Jun-14 19:33N 47°39' W 122°23'0 0.0
2015-Jun-14 19:32N 47°39' W 122°23'0 0.0
2015-Jun-14 18:33N 47°39' W 122°23'0 0.0
2015-Jun-14 18:32N 47°39' W 122°23'0 0.0
2015-Jun-14 17:33N 47°39' W 122°23'0 0.0
2015-Jun-14 17:32N 47°39' W 122°23'0 0.0
2015-Jun-14 16:33N 47°39' W 122°23'0 0.0
2015-Jun-14 16:32N 47°39' W 122°23'0 0.0
2015-Jun-14 15:33N 47°39' W 122°23'0 0.0
2015-Jun-14 15:32N 47°39' W 122°23'0 0.0
2015-Jun-14 14:33N 47°39' W 122°23'0 0.2
2015-Jun-14 14:31N 47°39' W 122°23'0 0.0
2015-Jun-14 13:33N 47°39' W 122°23'0 0.0
2015-Jun-14 13:31N 47°39' W 122°23'0 0.0
2015-Jun-14 12:33N 47°39' W 122°23'0 0.2
2015-Jun-14 12:31N 47°39' W 122°23'0 0.0
2015-Jun-14 11:33N 47°39' W 122°23'0 0.0
2015-Jun-14 11:31N 47°39' W 122°23'0 0.0
2015-Jun-14 10:33N 47°39' W 122°23'0 0.1
2015-Jun-14 10:30N 47°39' W 122°23'0 0.0
2015-Jun-14 09:33N 47°39' W 122°23'0 0.1
2015-Jun-14 09:30N 47°39' W 122°23'0 0.0
2015-Jun-14 08:33N 47°39' W 122°23'0 0.0
2015-Jun-14 08:30N 47°39' W 122°23'0 0.0
2015-Jun-14 07:33N 47°39' W 122°23'0 0.1
2015-Jun-14 07:30N 47°39' W 122°23'0 0.0
2015-Jun-14 06:33N 47°39' W 122°23'0 0.1
2015-Jun-14 06:30N 47°39' W 122°23'0 0.0
2015-Jun-14 06:00N 47°39' W 122°23'0 0.0
2015-Jun-14 05:33N 47°39' W 122°23'0 0.0
2015-Jun-14 04:33N 47°39' W 122°23'0 0.1
2015-Jun-14 04:29N 47°39' W 122°23'0 0.0
2015-Jun-14 03:33N 47°39' W 122°23'0 0.0
2015-Jun-14 03:29N 47°39' W 122°23'0 0.0
2015-Jun-14 02:33N 47°39' W 122°23'0 0.0
2015-Jun-14 02:29N 47°39' W 122°23'0 0.0
2015-Jun-14 01:33N 47°39' W 122°23'0 0.1
2015-Jun-14 01:28N 47°39' W 122°23'0 0.0
2015-Jun-14 00:33N 47°39' W 122°23'0 0.0
2015-Jun-14 00:33N 47°39' W 122°23'0 0.0
2015-Jun-13 23:33N 47°39' W 122°23'0 0.0
2015-Jun-13 23:33N 47°39' W 122°23'0 0.0
2015-Jun-13 22:33N 47°39' W 122°23'0 0.0
2015-Jun-13 22:33N 47°39' W 122°23'0 0.0
2015-Jun-13 21:33N 47°39' W 122°23'0 0.0
2015-Jun-13 21:33N 47°39' W 122°23'0 0.0
2015-Jun-13 20:33N 47°39' W 122°23'0 0.0
2015-Jun-13 20:32N 47°39' W 122°23'0 0.0
2015-Jun-13 19:33N 47°39' W 122°23'0 0.3
2015-Jun-13 19:32N 47°39' W 122°23'0 0.0
2015-Jun-13 18:33N 47°39' W 122°23'0 0.3
2015-Jun-13 18:32N 47°39' W 122°23'0 0.0
2015-Jun-13 17:33N 47°39' W 122°23'0 0.0
2015-Jun-13 17:32N 47°39' W 122°23'0 0.0
2015-Jun-13 16:33N 47°39' W 122°23'0 0.0
2015-Jun-13 16:32N 47°39' W 122°23'0 0.0
2015-Jun-13 15:33N 47°39' W 122°23'0 0.2
2015-Jun-13 15:32N 47°39' W 122°23'0 0.0
2015-Jun-13 14:33N 47°39' W 122°23'0 0.2
2015-Jun-13 14:31N 47°39' W 122°23'0 0.0
2015-Jun-13 13:33N 47°39' W 122°23'0 0.2
2015-Jun-13 13:31N 47°39' W 122°23'0 0.0
2015-Jun-13 12:33N 47°39' W 122°23'0 0.2
2015-Jun-13 12:31N 47°39' W 122°23'0 0.0
2015-Jun-13 11:33N 47°39' W 122°23'0 0.0
2015-Jun-13 11:30N 47°39' W 122°23'0 0.0
2015-Jun-13 10:33N 47°39' W 122°23'0 0.0
2015-Jun-13 10:31N 47°39' W 122°23'0 0.0
2015-Jun-13 09:33N 47°39' W 122°23'0 0.0
2015-Jun-13 09:30N 47°39' W 122°23'0 0.0
2015-Jun-13 08:33N 47°39' W 122°23'0 0.0
2015-Jun-13 08:30N 47°39' W 122°23'0 0.0
2015-Jun-13 07:33N 47°39' W 122°23'0 0.1
2015-Jun-13 07:30N 47°39' W 122°23'0 0.0
2015-Jun-13 06:33N 47°39' W 122°23'0 0.1
2015-Jun-13 06:30N 47°39' W 122°23'0 0.0
2015-Jun-13 06:10N 47°39' W 122°23'0 0.0
2015-Jun-13 05:33N 47°39' W 122°23'0 0.0
2015-Jun-13 04:33N 47°39' W 122°23'0 0.0
2015-Jun-13 04:29N 47°39' W 122°23'0 0.0
2015-Jun-13 03:33N 47°39' W 122°23'0 0.0
2015-Jun-13 03:29N 47°39' W 122°23'0 0.0
2015-Jun-13 02:33N 47°39' W 122°23'0 0.0
2015-Jun-13 02:29N 47°39' W 122°23'0 0.0
2015-Jun-13 01:33N 47°39' W 122°23'0 0.0
2015-Jun-13 01:29N 47°39' W 122°23'0 0.0
2015-Jun-13 00:33N 47°39' W 122°23'0 0.0
2015-Jun-13 00:33N 47°39' W 122°23'0 0.0
2015-Jun-12 23:33N 47°39' W 122°23'0 0.0
2015-Jun-12 23:33N 47°39' W 122°23'0 0.0
2015-Jun-12 22:33N 47°39' W 122°23'0 0.0
2015-Jun-12 22:33N 47°39' W 122°23'0 0.0
2015-Jun-12 21:33N 47°39' W 122°23'0 0.0
2015-Jun-12 21:33N 47°39' W 122°23'0 0.0
2015-Jun-12 20:32N 47°39' W 122°23'0 0.0
2015-Jun-12 20:32N 47°39' W 122°23'0 0.0
2015-Jun-12 19:33N 47°39' W 122°23'0 0.3
2015-Jun-12 19:32N 47°39' W 122°23'0 0.0
2015-Jun-12 18:33N 47°39' W 122°23'0 0.3
2015-Jun-12 18:32N 47°39' W 122°23'0 0.0
2015-Jun-12 17:33N 47°39' W 122°23'0 0.0
2015-Jun-12 17:32N 47°39' W 122°23'0 0.0
2015-Jun-12 16:33N 47°39' W 122°23'0 0.3
2015-Jun-12 16:32N 47°39' W 122°23'0 0.0
2015-Jun-12 15:33N 47°39' W 122°23'0 0.0
2015-Jun-12 15:32N 47°39' W 122°23'0 0.0
2015-Jun-12 14:33N 47°39' W 122°23'0 0.2
2015-Jun-12 14:31N 47°39' W 122°23'  
Track history (hours):
 
Tides and Currents Weather Stations Pressure Air Temp Water Temp Dewpoint Dewpoint Depression Visibility Wind Speed Wind Dir Waves Ship Positions

Polar Lady

Owner: M.G.F Fisheries, Seattle, WA. More information available from US FCC via Universal Licensing System and Coast Guard Vessel Documentation Center.

Last reported at 2015-Jun-22 14:11 UTC. Time now 2015-Jul-02 18:15 UTC.
Position N 54°51' W 131°60'.
Warning: this ship's position is 10 days out of date.

Length 40 m.

Type: Fishing. MMSI: 367024080.

Date/timePositionNaut miles runAvg speedWind from/ knotsBaromVisibWave heightAir tempDewpointWater temp
2015-Jun-22 14:11N 54°51' W 131°60'0 0.0
2015-Jun-22 13:28N 54°51' W 131°60'0 0.0
2015-Jun-22 12:27N 54°51' W 131°60'0 0.0
2015-Jun-22 11:33N 54°51' W 131°60'0 0.0
2015-Jun-22 10:13N 54°51' W 131°60'0 0.0
2015-Jun-22 09:28N 54°51' W 131°60'0 0.0
2015-Jun-22 05:32N 54°51' W 131°60'0 0.0
2015-Jun-22 04:31N 54°51' W 131°60'0 0.0
2015-Jun-22 03:33N 54°51' W 131°60'0 0.0
2015-Jun-22 02:27N 54°51' W 131°60'0 0.0
2015-Jun-22 01:32N 54°51' W 131°60'0 0.0
2015-Jun-22 00:17N 54°51' W 131°60'0 0.0
2015-Jun-21 23:33N 54°51' W 131°60'0 0.0
2015-Jun-21 22:33N 54°51' W 131°60'  
2015-Jun-18 06:17N 51°35' W 127°53'7 8.8
2015-Jun-18 05:32N 51°29' W 127°51'17 8.6
2015-Jun-18 03:32N 51°12' W 127°51'9 8.7
2015-Jun-18 02:33N 51°05' W 127°42'9 9.4
2015-Jun-18 01:33N 50°58' W 127°32'10 9.6
2015-Jun-18 00:33N 50°53' W 127°19'9 8.9
2015-Jun-17 23:33N 50°48' W 127°07'19 7.9
2015-Jun-17 21:08N 50°36' W 126°44'5 6.3
2015-Jun-17 20:24N 50°32' W 126°40'7 8.4
2015-Jun-17 19:33N 50°30' W 126°29'97 8.6
2015-Jun-17 08:16N 49°31' W 124°28'6 8.0
2015-Jun-17 07:33N 49°27' W 124°22'10 8.8
2015-Jun-17 06:27N 49°22' W 124°09'8 8.0
2015-Jun-17 05:29N 49°19' W 123°58'7 7.9
2015-Jun-17 04:33N 49°16' W 123°48'8 7.9
2015-Jun-17 03:33N 49°12' W 123°38'9 9.0
2015-Jun-17 02:33N 49°06' W 123°27'8 8.3
2015-Jun-17 01:33N 49°01' W 123°17'9 9.3
2015-Jun-17 00:33N 48°55' W 123°06'10 9.8
2015-Jun-16 23:32N 48°49' W 122°54'1010.1
2015-Jun-16 22:33N 48°42' W 122°44'611.2
2015-Jun-16 21:59N 48°36' W 122°45'511.4
2015-Jun-16 21:33N 48°31' W 122°44'9 8.8
2015-Jun-16 20:33N 48°22' W 122°45'12 6.4
2015-Jun-16 18:39N 48°10' W 122°43'4 9.2
2015-Jun-16 18:12N 48°06' W 122°39'710.7
2015-Jun-16 17:32N 47°60' W 122°36'9 9.7
2015-Jun-16 16:38N 47°53' W 122°28'110.2
2015-Jun-16 16:33N 47°52' W 122°28'0 0.0
2015-Jun-16 16:33N 47°52' W 122°28'9 9.2
2015-Jun-16 15:33N 47°43' W 122°25'0 6.7
2015-Jun-16 15:32N 47°43' W 122°25'3 3.2
2015-Jun-16 14:33N 47°40' W 122°24'0 0.0
2015-Jun-16 14:32N 47°40' W 122°24'1 0.6
2015-Jun-16 13:33N 47°40' W 122°23'0 0.2
2015-Jun-16 13:31N 47°40' W 122°23'0 0.0
2015-Jun-16 12:33N 47°40' W 122°23'0 0.2
2015-Jun-16 12:31N 47°40' W 122°23'0 0.0
2015-Jun-16 11:33N 47°40' W 122°23'0 0.0
2015-Jun-16 11:31N 47°40' W 122°23'0 0.0
2015-Jun-16 10:33N 47°40' W 122°23'0 0.0
2015-Jun-16 10:30N 47°40' W 122°23'0 0.0
2015-Jun-16 09:33N 47°40' W 122°23'0 0.0
2015-Jun-16 09:30N 47°40' W 122°23'0 0.0
2015-Jun-16 08:33N 47°40' W 122°23'0 0.0
2015-Jun-16 08:30N 47°40' W 122°23'0 0.0
2015-Jun-16 07:33N 47°40' W 122°23'0 0.1
2015-Jun-16 07:30N 47°40' W 122°23'0 0.0
2015-Jun-16 06:33N 47°40' W 122°23'0 0.1
2015-Jun-16 06:30N 47°40' W 122°23'0 0.0
2015-Jun-16 06:00N 47°40' W 122°23'0 0.0
2015-Jun-16 05:33N 47°40' W 122°23'0 0.0
2015-Jun-16 04:33N 47°40' W 122°23'0 0.0
2015-Jun-16 04:29N 47°40' W 122°23'0 0.0
2015-Jun-16 03:34N 47°40' W 122°23'0 0.0
2015-Jun-16 03:29N 47°40' W 122°23'0 0.0
2015-Jun-16 02:33N 47°40' W 122°23'0 0.0
2015-Jun-16 02:29N 47°40' W 122°23'0 0.0
2015-Jun-16 01:33N 47°40' W 122°23'0 0.0
2015-Jun-16 01:28N 47°40' W 122°23'0 0.0
2015-Jun-16 00:33N 47°40' W 122°23'021.6
2015-Jun-16 00:33N 47°40' W 122°23'0 0.0
2015-Jun-15 23:33N 47°40' W 122°23'0 0.0
2015-Jun-15 23:33N 47°40' W 122°23'0 0.0
2015-Jun-15 22:33N 47°40' W 122°23'0 0.0
2015-Jun-15 22:33N 47°40' W 122°23'1 0.5
2015-Jun-15 21:33N 47°39' W 122°23'0 1.2
2015-Jun-15 21:33N 47°39' W 122°23'0 0.0
2015-Jun-15 20:33N 47°39' W 122°23'0 0.0
2015-Jun-15 20:32N 47°39' W 122°23'0 0.0
2015-Jun-15 19:33N 47°39' W 122°23'0 0.3
2015-Jun-15 19:32N 47°39' W 122°23'0 0.0
2015-Jun-15 18:33N 47°39' W 122°23'0 0.0
2015-Jun-15 18:32N 47°39' W 122°23'0 0.0
2015-Jun-15 17:33N 47°39' W 122°23'0 0.0
2015-Jun-15 17:32N 47°39' W 122°23'0 0.0
2015-Jun-15 16:33N 47°39' W 122°23'0 0.2
2015-Jun-15 16:32N 47°39' W 122°23'0 0.0
2015-Jun-15 15:33N 47°39' W 122°23'0 0.0
2015-Jun-15 15:32N 47°39' W 122°23'0 0.0
2015-Jun-15 14:33N 47°39' W 122°23'0 0.2
2015-Jun-15 14:31N 47°39' W 122°23'0 0.0
2015-Jun-15 13:33N 47°39' W 122°23'0 0.2
2015-Jun-15 13:31N 47°39' W 122°23'0 0.0
2015-Jun-15 12:33N 47°39' W 122°23'0 0.0
2015-Jun-15 12:31N 47°39' W 122°23'0 0.0
2015-Jun-15 11:33N 47°39' W 122°23'0 0.1
2015-Jun-15 11:31N 47°39' W 122°23'0 0.0
2015-Jun-15 10:33N 47°39' W 122°23'0 0.1
2015-Jun-15 10:30N 47°39' W 122°23'0 0.0
2015-Jun-15 09:33N 47°39' W 122°23'0 0.0
2015-Jun-15 09:30N 47°39' W 122°23'0 0.0
2015-Jun-15 08:33N 47°39' W 122°23'0 0.0
2015-Jun-15 08:30N 47°39' W 122°23'0 0.0
2015-Jun-15 07:33N 47°39' W 122°23'0 0.0
2015-Jun-15 07:30N 47°39' W 122°23'0 0.0
2015-Jun-15 06:33N 47°39' W 122°23'0 0.0
2015-Jun-15 06:30N 47°39' W 122°23'0 0.0
2015-Jun-15 06:05N 47°39' W 122°23'0 0.0
2015-Jun-15 05:33N 47°39' W 122°23'0 0.0
2015-Jun-15 04:33N 47°39' W 122°23'0 0.0
2015-Jun-15 04:29N 47°39' W 122°23'0 0.0
2015-Jun-15 03:33N 47°39' W 122°23'0 0.2
2015-Jun-15 03:29N 47°39' W 122°23'0 0.0
2015-Jun-15 02:33N 47°39' W 122°23'0 0.1
2015-Jun-15 02:29N 47°39' W 122°23'0 0.0
2015-Jun-15 01:33N 47°39' W 122°23'0 0.0
2015-Jun-15 01:28N 47°39' W 122°23'0 0.0
2015-Jun-15 00:34N 47°39' W 122°23'0 3.6
2015-Jun-15 00:33N 47°39' W 122°23'0 0.0
2015-Jun-14 23:33N 47°39' W 122°23'0 0.0
2015-Jun-14 23:33N 47°39' W 122°23'0 0.0
2015-Jun-14 22:33N 47°39' W 122°23'0 0.0
2015-Jun-14 22:33N 47°39' W 122°23'0 0.0
2015-Jun-14 21:33N 47°39' W 122°23'0 0.0
2015-Jun-14 21:33N 47°39' W 122°23'0 0.0
2015-Jun-14 20:33N 47°39' W 122°23'0 0.5
2015-Jun-14 20:33N 47°39' W 122°23'0 0.0
2015-Jun-14 19:33N 47°39' W 122°23'0 0.0
2015-Jun-14 19:32N 47°39' W 122°23'0 0.0
2015-Jun-14 18:33N 47°39' W 122°23'0 0.0
2015-Jun-14 18:32N 47°39' W 122°23'0 0.0
2015-Jun-14 17:33N 47°39' W 122°23'0 0.0
2015-Jun-14 17:32N 47°39' W 122°23'0 0.0
2015-Jun-14 16:33N 47°39' W 122°23'0 0.0
2015-Jun-14 16:32N 47°39' W 122°23'0 0.0
2015-Jun-14 15:33N 47°39' W 122°23'0 0.0
2015-Jun-14 15:32N 47°39' W 122°23'0 0.0
2015-Jun-14 14:33N 47°39' W 122°23'0 0.2
2015-Jun-14 14:31N 47°39' W 122°23'0 0.0
2015-Jun-14 13:33N 47°39' W 122°23'0 0.0
2015-Jun-14 13:31N 47°39' W 122°23'0 0.0
2015-Jun-14 12:33N 47°39' W 122°23'0 0.2
2015-Jun-14 12:31N 47°39' W 122°23'0 0.0
2015-Jun-14 11:33N 47°39' W 122°23'0 0.0
2015-Jun-14 11:31N 47°39' W 122°23'0 0.0
2015-Jun-14 10:33N 47°39' W 122°23'0 0.1
2015-Jun-14 10:30N 47°39' W 122°23'0 0.0
2015-Jun-14 09:33N 47°39' W 122°23'0 0.1
2015-Jun-14 09:30N 47°39' W 122°23'0 0.0
2015-Jun-14 08:33N 47°39' W 122°23'0 0.0
2015-Jun-14 08:30N 47°39' W 122°23'0 0.0
2015-Jun-14 07:33N 47°39' W 122°23'0 0.1
2015-Jun-14 07:30N 47°39' W 122°23'0 0.0
2015-Jun-14 06:33N 47°39' W 122°23'0 0.1
2015-Jun-14 06:30N 47°39' W 122°23'0 0.0
2015-Jun-14 06:00N 47°39' W 122°23'0 0.0
2015-Jun-14 05:33N 47°39' W 122°23'0 0.0
2015-Jun-14 04:33N 47°39' W 122°23'0 0.1
2015-Jun-14 04:29N 47°39' W 122°23'0 0.0
2015-Jun-14 03:33N 47°39' W 122°23'0 0.0
2015-Jun-14 03:29N 47°39' W 122°23'0 0.0
2015-Jun-14 02:33N 47°39' W 122°23'0 0.0
2015-Jun-14 02:29N 47°39' W 122°23'0 0.0
2015-Jun-14 01:33N 47°39' W 122°23'0 0.1
2015-Jun-14 01:28N 47°39' W 122°23'0 0.0
2015-Jun-14 00:33N 47°39' W 122°23'0 0.0
2015-Jun-14 00:33N 47°39' W 122°23'0 0.0
2015-Jun-13 23:33N 47°39' W 122°23'0 0.0
2015-Jun-13 23:33N 47°39' W 122°23'0 0.0
2015-Jun-13 22:33N 47°39' W 122°23'0 0.0
2015-Jun-13 22:33N 47°39' W 122°23'0 0.0
2015-Jun-13 21:33N 47°39' W 122°23'0 0.0
2015-Jun-13 21:33N 47°39' W 122°23'0 0.0
2015-Jun-13 20:33N 47°39' W 122°23'0 0.0
2015-Jun-13 20:32N 47°39' W 122°23'0 0.0
2015-Jun-13 19:33N 47°39' W 122°23'0 0.3
2015-Jun-13 19:32N 47°39' W 122°23'0 0.0
2015-Jun-13 18:33N 47°39' W 122°23'0 0.3
2015-Jun-13 18:32N 47°39' W 122°23'0 0.0
2015-Jun-13 17:33N 47°39' W 122°23'0 0.0
2015-Jun-13 17:32N 47°39' W 122°23'0 0.0
2015-Jun-13 16:33N 47°39' W 122°23'0 0.0
2015-Jun-13 16:32N 47°39' W 122°23'0 0.0
2015-Jun-13 15:33N 47°39' W 122°23'0 0.2
2015-Jun-13 15:32N 47°39' W 122°23'0 0.0
2015-Jun-13 14:33N 47°39' W 122°23'0 0.2
2015-Jun-13 14:31N 47°39' W 122°23'0 0.0
2015-Jun-13 13:33N 47°39' W 122°23'0 0.2
2015-Jun-13 13:31N 47°39' W 122°23'0 0.0
2015-Jun-13 12:33N 47°39' W 122°23'0 0.2
2015-Jun-13 12:31N 47°39' W 122°23'0 0.0
2015-Jun-13 11:33N 47°39' W 122°23'0 0.0
2015-Jun-13 11:30N 47°39' W 122°23'0 0.0
2015-Jun-13 10:33N 47°39' W 122°23'0 0.0
2015-Jun-13 10:31N 47°39' W 122°23'0 0.0
2015-Jun-13 09:33N 47°39' W 122°23'0 0.0
2015-Jun-13 09:30N 47°39' W 122°23'0 0.0
2015-Jun-13 08:33N 47°39' W 122°23'0 0.0
2015-Jun-13 08:30N 47°39' W 122°23'0 0.0
2015-Jun-13 07:33N 47°39' W 122°23'0 0.1
2015-Jun-13 07:30N 47°39' W 122°23'0 0.0
2015-Jun-13 06:33N 47°39' W 122°23'0 0.1
2015-Jun-13 06:30N 47°39' W 122°23'0 0.0
2015-Jun-13 06:10N 47°39' W 122°23'0 0.0
2015-Jun-13 05:33N 47°39' W 122°23'0 0.0
2015-Jun-13 04:33N 47°39' W 122°23'0 0.0
2015-Jun-13 04:29N 47°39' W 122°23'0 0.0
2015-Jun-13 03:33N 47°39' W 122°23'0 0.0
2015-Jun-13 03:29N 47°39' W 122°23'0 0.0
2015-Jun-13 02:33N 47°39' W 122°23'0 0.0
2015-Jun-13 02:29N 47°39' W 122°23'0 0.0
2015-Jun-13 01:33N 47°39' W 122°23'0 0.0
2015-Jun-13 01:29N 47°39' W 122°23'0 0.0
2015-Jun-13 00:33N 47°39' W 122°23'0 0.0
2015-Jun-13 00:33N 47°39' W 122°23'0 0.0
2015-Jun-12 23:33N 47°39' W 122°23'0 0.0
2015-Jun-12 23:33N 47°39' W 122°23'0 0.0
2015-Jun-12 22:33N 47°39' W 122°23'0 0.0
2015-Jun-12 22:33N 47°39' W 122°23'0 0.0
2015-Jun-12 21:33N 47°39' W 122°23'0 0.0
2015-Jun-12 21:33N 47°39' W 122°23'0 0.0
2015-Jun-12 20:32N 47°39' W 122°23'0 0.0
2015-Jun-12 20:32N 47°39' W 122°23'0 0.0
2015-Jun-12 19:33N 47°39' W 122°23'0 0.3
2015-Jun-12 19:32N 47°39' W 122°23'0 0.0
2015-Jun-12 18:33N 47°39' W 122°23'0 0.3
2015-Jun-12 18:32N 47°39' W 122°23'0 0.0
2015-Jun-12 17:33N 47°39' W 122°23'0 0.0
2015-Jun-12 17:32N 47°39' W 122°23'0 0.0
2015-Jun-12 16:33N 47°39' W 122°23'0 0.3
2015-Jun-12 16:32N 47°39' W 122°23'0 0.0
2015-Jun-12 15:33N 47°39' W 122°23'0 0.0
2015-Jun-12 15:32N 47°39' W 122°23'0 0.0
2015-Jun-12 14:33N 47°39' W 122°23'0 0.2
2015-Jun-12 14:31N 47°39' W 122°23'  

Dump ship's entire track history